createdAt,value
2022-08-30T00:02:20.839Z,16.78
2022-08-30T00:04:48.495Z,16.74
2022-08-30T00:07:15.636Z,16.67
2022-08-30T00:09:42.717Z,16.69
2022-08-30T00:12:10.710Z,16.71
2022-08-30T00:14:38.036Z,16.72
2022-08-30T00:17:05.206Z,16.70
2022-08-30T00:19:32.661Z,16.70
2022-08-30T00:21:59.890Z,16.69
2022-08-30T00:24:27.175Z,16.68
2022-08-30T00:26:54.364Z,16.67
2022-08-30T00:29:21.532Z,16.66
2022-08-30T00:31:48.837Z,16.70
2022-08-30T00:34:16.726Z,16.73
2022-08-30T00:36:46.752Z,16.75
2022-08-30T00:39:13.928Z,16.70
2022-08-30T00:41:41.132Z,16.65
2022-08-30T00:44:08.445Z,16.60
2022-08-30T00:46:35.661Z,16.54
2022-08-30T00:49:04.262Z,16.47
2022-08-30T00:51:31.788Z,16.45
2022-08-30T00:53:59.251Z,16.48
2022-08-30T00:56:26.806Z,16.58
2022-08-30T00:58:55.839Z,16.63
2022-08-30T01:01:23.247Z,16.57
2022-08-30T01:03:50.757Z,16.46
2022-08-30T01:06:18.141Z,16.37
2022-08-30T01:08:46.722Z,16.31
2022-08-30T01:11:16.537Z,16.26
2022-08-30T01:13:44.144Z,16.25
2022-08-30T01:16:11.378Z,16.25
2022-08-30T01:18:39.619Z,16.30
2022-08-30T01:21:35.281Z,16.34
2022-08-30T01:24:03.157Z,16.36
2022-08-30T01:26:30.996Z,16.39
2022-08-30T01:29:03.165Z,16.36
2022-08-30T01:31:30.410Z,16.34
2022-08-30T01:33:57.542Z,16.39
2022-08-30T01:36:25.343Z,16.33
2022-08-30T01:38:55.702Z,16.32
2022-08-30T01:41:29.742Z,16.30
2022-08-30T01:43:59.724Z,16.30
2022-08-30T01:46:31.202Z,16.34
2022-08-30T01:48:58.630Z,16.26
2022-08-30T01:51:27.781Z,16.16
2022-08-30T01:53:55.663Z,16.13
2022-08-30T01:56:24.367Z,16.13
2022-08-30T01:58:51.963Z,16.10
2022-08-30T02:01:22.297Z,16.14
2022-08-30T02:03:49.543Z,16.14
2022-08-30T02:06:19.879Z,16.18
2022-08-30T02:08:47.229Z,16.24
2022-08-30T02:11:15.813Z,16.29
2022-08-30T02:13:44.444Z,16.28
2022-08-30T02:16:14.427Z,16.23
2022-08-30T02:18:41.774Z,16.13
2022-08-30T02:21:08.898Z,16.02
2022-08-30T02:23:36.547Z,15.89
2022-08-30T02:26:04.565Z,15.85
2022-08-30T02:28:31.698Z,15.82
2022-08-30T02:31:00.104Z,15.82
2022-08-30T02:33:27.390Z,15.88
2022-08-30T02:35:56.090Z,15.92
2022-08-30T02:38:23.805Z,15.88
2022-08-30T02:40:51.590Z,15.89
2022-08-30T02:43:18.931Z,15.91
2022-08-30T02:45:46.094Z,15.89
2022-08-30T02:48:13.241Z,15.84
2022-08-30T02:50:42.926Z,15.90
2022-08-30T02:53:10.225Z,15.93
2022-08-30T02:55:41.206Z,15.94
2022-08-30T02:58:10.515Z,15.90
2022-08-30T03:00:38.715Z,15.89
2022-08-30T03:03:07.447Z,15.84
2022-08-30T03:05:35.029Z,15.73
2022-08-30T03:08:05.125Z,15.67
2022-08-30T03:10:32.246Z,15.69
2022-08-30T03:12:59.466Z,15.65
2022-08-30T03:15:27.009Z,15.59
2022-08-30T03:17:54.940Z,15.59
2022-08-30T03:20:24.954Z,15.61
2022-08-30T03:22:52.474Z,15.62
2022-08-30T03:25:23.271Z,15.63
2022-08-30T03:27:51.066Z,15.55
2022-08-30T03:30:19.841Z,15.50
2022-08-30T03:32:47.299Z,15.48
2022-08-30T03:35:15.112Z,15.51
2022-08-30T03:37:42.329Z,15.58
2022-08-30T03:40:11.366Z,15.56
2022-08-30T03:42:38.556Z,15.59
2022-08-30T03:45:07.640Z,15.59
2022-08-30T03:47:34.801Z,15.61
2022-08-30T03:50:02.293Z,15.59
2022-08-30T03:52:29.437Z,15.57
2022-08-30T03:54:56.660Z,15.54
2022-08-30T03:57:24.597Z,15.55
2022-08-30T03:59:51.993Z,15.52
2022-08-30T04:02:19.943Z,15.44
2022-08-30T04:04:47.224Z,15.39
2022-08-30T04:07:14.413Z,15.40
2022-08-30T04:09:41.868Z,15.42
2022-08-30T04:12:09.289Z,15.38
2022-08-30T04:14:36.393Z,15.41
2022-08-30T04:17:03.608Z,15.44
2022-08-30T04:19:30.856Z,15.45
2022-08-30T04:21:58.011Z,15.44
2022-08-30T04:24:25.419Z,15.43
2022-08-30T04:26:52.899Z,15.45
2022-08-30T04:29:20.024Z,15.37
2022-08-30T04:31:47.228Z,15.39
2022-08-30T04:34:14.841Z,15.43
2022-08-30T04:36:41.937Z,15.42
2022-08-30T04:39:16.269Z,15.47
2022-08-30T04:41:43.428Z,15.45
2022-08-30T04:44:14.231Z,15.48
2022-08-30T04:46:47.166Z,15.49
2022-08-30T04:49:14.651Z,15.53
2022-08-30T04:51:41.905Z,15.58
2022-08-30T04:54:09.053Z,15.55
2022-08-30T04:56:36.468Z,15.54
2022-08-30T04:59:04.244Z,15.53
2022-08-30T05:01:44.491Z,15.54
2022-08-30T05:04:12.510Z,15.56
2022-08-30T05:06:39.620Z,15.58
2022-08-30T05:09:06.742Z,15.54
2022-08-30T05:11:33.883Z,15.52
2022-08-30T05:14:00.975Z,15.54
2022-08-30T05:16:29.157Z,15.53
2022-08-30T05:18:56.379Z,15.55
2022-08-30T05:21:26.537Z,15.46
2022-08-30T05:23:57.860Z,15.43
2022-08-30T05:26:30.932Z,15.47
2022-08-30T05:28:58.559Z,15.45
2022-08-30T05:31:28.852Z,15.48
2022-08-30T05:33:56.473Z,15.54
2022-08-30T05:36:26.363Z,15.61
2022-08-30T05:38:54.833Z,15.68
2022-08-30T05:41:23.175Z,15.75
2022-08-30T05:43:55.780Z,15.79
2022-08-30T05:46:23.636Z,15.79
2022-08-30T05:48:51.316Z,15.82
2022-08-30T05:51:23.457Z,15.88
2022-08-30T05:53:53.149Z,15.96
2022-08-30T05:56:25.962Z,16.01
2022-08-30T05:58:54.496Z,16.00
2022-08-30T06:01:33.304Z,16.05
2022-08-30T06:04:04.042Z,16.11
2022-08-30T06:06:33.772Z,16.18
2022-08-30T06:09:00.985Z,16.25
2022-08-30T06:11:30.999Z,16.31
2022-08-30T06:13:58.136Z,16.36
2022-08-30T06:16:26.990Z,16.40
2022-08-30T06:18:56.241Z,16.43
2022-08-30T06:21:26.676Z,16.46
2022-08-30T06:23:54.311Z,16.50
2022-08-30T06:26:21.537Z,16.55
2022-08-30T06:28:49.237Z,16.61
2022-08-30T06:31:18.741Z,16.67
2022-08-30T06:33:46.915Z,16.71
2022-08-30T06:36:17.471Z,16.73
2022-08-30T06:38:45.310Z,16.75
2022-08-30T06:41:19.005Z,16.79
2022-08-30T06:43:49.092Z,16.80
2022-08-30T06:46:22.680Z,16.76
2022-08-30T06:48:49.884Z,16.78
2022-08-30T06:51:21.635Z,16.78
2022-08-30T06:53:50.309Z,16.79
2022-08-30T06:56:18.917Z,16.79
2022-08-30T06:58:47.244Z,16.87
2022-08-30T07:01:16.768Z,16.95
2022-08-30T07:03:44.261Z,16.97
2022-08-30T07:06:11.491Z,17.05
2022-08-30T07:08:38.779Z,17.14
2022-08-30T07:11:07.689Z,17.20
2022-08-30T07:13:37.065Z,17.24
2022-08-30T07:16:15.024Z,17.27
2022-08-30T07:18:52.314Z,17.33
2022-08-30T07:21:22.435Z,17.41
2022-08-30T07:23:53.379Z,17.44
2022-08-30T07:26:32.276Z,17.52
2022-08-30T07:29:00.223Z,17.60
2022-08-30T07:31:27.641Z,17.67
2022-08-30T07:33:55.275Z,17.75
2022-08-30T07:36:23.480Z,17.77
2022-08-30T07:38:51.412Z,17.81
2022-08-30T07:41:25.543Z,17.86
2022-08-30T07:43:53.028Z,17.86
2022-08-30T07:46:21.446Z,17.90
2022-08-30T07:48:48.988Z,17.94
2022-08-30T07:51:19.553Z,17.99
2022-08-30T07:53:47.784Z,18.00
2022-08-30T07:56:15.634Z,18.02
2022-08-30T07:58:43.905Z,18.06
2022-08-30T08:01:12.949Z,18.09
2022-08-30T08:03:41.475Z,18.10
2022-08-30T08:06:10.947Z,18.17
2022-08-30T08:08:38.975Z,18.24
2022-08-30T08:11:08.815Z,18.33
2022-08-30T08:13:52.631Z,18.35
2022-08-30T08:16:27.215Z,18.40
2022-08-30T08:18:55.064Z,18.52
2022-08-30T08:21:24.410Z,18.59
2022-08-30T08:23:52.123Z,18.68
2022-08-30T08:26:20.546Z,18.81
2022-08-30T08:28:47.820Z,18.83
2022-08-30T08:31:19.030Z,18.88
2022-08-30T08:33:47.744Z,18.95
2022-08-30T08:36:21.814Z,19.06
2022-08-30T08:38:49.282Z,19.13
2022-08-30T08:41:43.707Z,19.20
2022-08-30T08:44:25.037Z,19.26
2022-08-30T08:47:00.979Z,19.29
2022-08-30T08:49:30.548Z,19.38
2022-08-30T08:52:17.350Z,19.41
2022-08-30T08:54:52.893Z,19.46
2022-08-30T08:57:24.697Z,19.49
2022-08-30T08:59:54.491Z,19.54
2022-08-30T09:02:28.713Z,19.56
2022-08-30T09:05:01.747Z,19.56
2022-08-30T09:07:47.035Z,19.53
2022-08-30T09:10:14.373Z,19.53
2022-08-30T09:12:41.735Z,19.55
2022-08-30T09:15:24.816Z,19.51
2022-08-30T09:18:04.541Z,19.40
2022-08-30T09:20:41.533Z,19.29
2022-08-30T09:23:28.772Z,19.16
2022-08-30T09:26:02.114Z,19.15
2022-08-30T09:29:05.236Z,19.17
2022-08-30T09:32:01.283Z,19.23
2022-08-30T09:34:46.383Z,19.29
2022-08-30T09:37:32.490Z,19.32
2022-08-30T09:40:00.609Z,19.32
2022-08-30T09:42:34.985Z,19.29
2022-08-30T09:45:22.323Z,19.27
2022-08-30T09:47:58.783Z,19.29
2022-08-30T09:50:47.752Z,19.38
2022-08-30T09:57:33.573Z,19.62
2022-08-30T10:00:16.730Z,19.84
2022-08-30T10:02:59.356Z,20.02
2022-08-30T10:05:38.174Z,20.16
2022-08-30T10:08:30.642Z,20.28
2022-08-30T10:11:37.551Z,20.31
2022-08-30T10:14:33.905Z,20.28
2022-08-30T10:17:13.174Z,20.35
2022-08-30T10:20:16.259Z,20.42
2022-08-30T10:23:10.972Z,20.47
2022-08-30T10:25:39.129Z,20.52
2022-08-30T10:28:35.683Z,20.55
2022-08-30T10:31:07.148Z,20.65
2022-08-30T10:33:40.760Z,20.75
2022-08-30T10:36:11.220Z,20.83
2022-08-30T10:38:40.809Z,20.96
2022-08-30T10:41:20.027Z,21.05
2022-08-30T10:44:15.850Z,21.20
2022-08-30T10:46:58.260Z,21.30
2022-08-30T10:49:27.295Z,21.38
2022-08-30T10:51:58.888Z,21.46
2022-08-30T10:54:49.042Z,21.55
2022-08-30T10:57:17.225Z,21.67
2022-08-30T10:59:50.141Z,21.82
2022-08-30T11:02:17.323Z,21.97
2022-08-30T11:04:53.140Z,22.06
2022-08-30T11:07:57.622Z,22.23
2022-08-30T11:10:49.869Z,22.36
2022-08-30T11:13:29.737Z,22.41
2022-08-30T11:16:06.526Z,22.39
2022-08-30T11:18:43.422Z,22.41
2022-08-30T11:24:02.046Z,22.36
2022-08-30T11:26:48.275Z,22.42
2022-08-30T11:29:33.502Z,22.44
2022-08-30T11:32:25.103Z,22.46
2022-08-30T11:34:57.902Z,22.39
2022-08-30T11:37:44.362Z,22.40
2022-08-30T11:40:20.338Z,22.29
2022-08-30T11:42:49.662Z,22.20
2022-08-30T11:45:28.380Z,22.34
2022-08-30T11:48:05.678Z,22.51
2022-08-30T11:50:55.537Z,22.39
2022-08-30T11:53:31.688Z,22.36
2022-08-30T11:56:17.406Z,22.44
2022-08-30T11:58:58.469Z,22.49
2022-08-30T12:01:49.730Z,22.52
2022-08-30T12:04:19.656Z,22.55
2022-08-30T12:06:51.249Z,22.60
2022-08-30T12:09:21.013Z,22.69
2022-08-30T12:11:56.984Z,22.79
2022-08-30T12:14:52.647Z,22.86
2022-08-30T12:18:03.485Z,22.80
2022-08-30T12:20:48.532Z,22.97
2022-08-30T12:23:27.122Z,23.03
2022-08-30T12:26:13.163Z,23.22
2022-08-30T12:28:42.113Z,23.41
2022-08-30T12:31:16.417Z,23.48
2022-08-30T12:33:48.906Z,23.49
2022-08-30T12:36:40.586Z,23.18
2022-08-30T12:39:17.017Z,23.10
2022-08-30T12:41:45.210Z,23.25
2022-08-30T12:44:21.120Z,23.35
2022-08-30T12:46:50.428Z,23.24
2022-08-30T12:49:18.774Z,23.38
2022-08-30T12:51:46.358Z,23.50
2022-08-30T12:54:29.911Z,23.60
2022-08-30T12:57:01.414Z,23.62
2022-08-30T12:59:58.144Z,23.71
2022-08-30T13:02:41.861Z,23.55
2022-08-30T13:05:27.645Z,23.34
2022-08-30T13:08:12.197Z,23.37
2022-08-30T13:10:49.503Z,23.39
2022-08-30T13:13:36.012Z,23.41
2022-08-30T13:16:31.272Z,23.48
2022-08-30T13:19:28.187Z,23.60
2022-08-30T13:21:57.223Z,23.61
2022-08-30T13:24:25.852Z,23.48
2022-08-30T13:26:58.844Z,23.45
2022-08-30T13:29:28.717Z,23.48
2022-08-30T13:31:56.008Z,23.52
2022-08-30T13:34:23.561Z,23.55
2022-08-30T13:36:55.691Z,23.60
2022-08-30T13:39:23.706Z,23.67
2022-08-30T13:41:51.833Z,23.68
2022-08-30T13:44:19.156Z,23.64
2022-08-30T13:46:54.169Z,23.60
2022-08-30T13:52:22.335Z,23.58
2022-08-30T13:54:51.238Z,23.47
2022-08-30T14:00:12.602Z,23.55
2022-08-30T14:02:46.334Z,23.65
2022-08-30T14:05:37.252Z,23.79
2022-08-30T14:08:00.814Z,24.07
2022-08-30T14:10:31.505Z,24.21
2022-08-30T14:13:07.747Z,24.61
2022-08-30T14:15:39.540Z,24.93
2022-08-30T14:18:08.074Z,25.16
2022-08-30T14:20:38.827Z,25.13
2022-08-30T14:23:09.912Z,25.08
2022-08-30T14:25:37.743Z,25.16
2022-08-30T14:28:09.742Z,25.17
2022-08-30T14:30:37.196Z,25.09
2022-08-30T14:33:04.726Z,24.97
2022-08-30T14:35:32.930Z,24.88
2022-08-30T14:38:01.128Z,24.90
2022-08-30T14:40:28.420Z,24.74
2022-08-30T14:42:55.768Z,24.66
2022-08-30T14:45:22.862Z,24.58
2022-08-30T14:47:51.289Z,24.33
2022-08-30T14:50:18.405Z,24.09
2022-08-30T14:52:46.447Z,23.94
2022-08-30T14:55:13.724Z,23.85
2022-08-30T14:57:41.080Z,23.79
2022-08-30T15:00:11.357Z,23.83
2022-08-30T15:02:38.516Z,23.77
2022-08-30T15:05:06.900Z,23.60
2022-08-30T15:07:36.349Z,23.49
2022-08-30T15:10:05.731Z,23.40
2022-08-30T15:12:32.884Z,23.32
2022-08-30T15:15:00.128Z,23.32
2022-08-30T15:17:27.516Z,23.30
2022-08-30T15:19:55.281Z,23.23
2022-08-30T15:22:22.519Z,23.19
2022-08-30T15:24:50.866Z,23.22
2022-08-30T15:27:18.291Z,23.10
2022-08-30T15:29:45.427Z,23.08
2022-08-30T15:32:12.775Z,23.13
2022-08-30T15:34:40.048Z,23.22
2022-08-30T15:37:07.366Z,23.31
2022-08-30T15:39:35.136Z,23.30
2022-08-30T15:42:02.485Z,23.29
2022-08-30T15:44:32.667Z,23.37
2022-08-30T15:47:01.882Z,23.44
2022-08-30T15:49:29.535Z,23.44
2022-08-30T15:52:00.956Z,23.48
2022-08-30T15:54:28.592Z,23.44
2022-08-30T15:56:59.398Z,23.48
2022-08-30T15:59:28.295Z,23.55
2022-08-30T16:01:55.489Z,23.54
2022-08-30T16:04:24.801Z,23.55
2022-08-30T16:06:53.694Z,23.58
2022-08-30T16:09:21.686Z,23.63
2022-08-30T16:11:49.219Z,23.61
2022-08-30T16:14:16.727Z,23.62
2022-08-30T16:16:44.214Z,23.71
2022-08-30T16:19:11.749Z,23.74
2022-08-30T16:21:39.863Z,23.89
2022-08-30T16:24:10.526Z,23.82
2022-08-30T16:26:37.940Z,23.75
2022-08-30T16:29:07.302Z,23.57
2022-08-30T16:31:36.117Z,23.45
2022-08-30T16:34:04.515Z,23.34
2022-08-30T16:36:33.230Z,23.26
2022-08-30T16:39:00.773Z,23.19
2022-08-30T16:41:28.502Z,23.16
2022-08-30T16:43:56.068Z,23.04
2022-08-30T16:46:27.245Z,23.00
2022-08-30T16:48:57.936Z,22.95
2022-08-30T16:51:27.364Z,22.92
2022-08-30T16:53:58.078Z,22.79
2022-08-30T16:56:28.096Z,22.59
2022-08-30T16:59:01.080Z,22.49
2022-08-30T17:01:31.815Z,22.36
2022-08-30T17:04:00.096Z,22.28
2022-08-30T17:06:27.714Z,22.16
2022-08-30T17:08:56.114Z,22.02
2022-08-30T17:11:24.557Z,21.98
2022-08-30T17:13:52.557Z,21.94
2022-08-30T17:16:27.436Z,21.97
2022-08-30T17:18:59.866Z,21.92
2022-08-30T17:21:29.139Z,21.83
2022-08-30T17:26:44.717Z,21.83
2022-08-30T17:29:15.807Z,21.69
2022-08-30T17:31:46.510Z,21.61
2022-08-30T17:34:21.818Z,21.53
2022-08-30T17:36:50.742Z,21.49
2022-08-30T17:39:18.430Z,21.43
2022-08-30T17:41:50.720Z,21.28
2022-08-30T17:44:20.234Z,21.23
2022-08-30T17:46:47.697Z,21.28
2022-08-30T17:49:15.086Z,21.20
2022-08-30T17:51:43.547Z,21.02
2022-08-30T17:54:12.648Z,20.92
2022-08-30T17:56:41.567Z,20.93
2022-08-30T17:59:10.768Z,20.98
2022-08-30T18:01:38.049Z,20.93
2022-08-30T18:04:06.555Z,20.92
2022-08-30T18:06:35.439Z,20.90
2022-08-30T18:09:06.655Z,20.77
2022-08-30T18:11:36.158Z,20.66
2022-08-30T18:14:04.640Z,20.57
2022-08-30T18:16:33.464Z,20.52
2022-08-30T18:19:09.490Z,20.48
2022-08-30T18:21:37.796Z,20.41
2022-08-30T18:24:06.073Z,20.30
2022-08-30T18:26:33.671Z,20.15
2022-08-30T18:29:02.002Z,20.11
2022-08-30T18:31:29.656Z,20.10
2022-08-30T18:34:00.189Z,20.07
2022-08-30T18:36:28.676Z,19.94
2022-08-30T18:38:56.036Z,19.83
2022-08-30T18:41:25.850Z,19.76
2022-08-30T18:44:11.071Z,19.70
2022-08-30T18:46:55.791Z,19.71
2022-08-30T18:49:27.477Z,19.66
2022-08-30T18:51:54.820Z,19.62
2022-08-30T18:54:22.618Z,19.58
2022-08-30T18:56:51.778Z,19.54
2022-08-30T18:59:19.642Z,19.51
2022-08-30T19:01:48.609Z,19.42
2022-08-30T19:04:22.534Z,19.29
2022-08-30T19:06:57.578Z,19.20
2022-08-30T19:09:26.658Z,19.22
2022-08-30T19:11:55.053Z,19.16
2022-08-30T19:14:22.383Z,19.11
2022-08-30T19:16:49.566Z,19.10
2022-08-30T19:19:18.688Z,19.12
2022-08-30T19:21:45.957Z,19.05
2022-08-30T19:24:13.236Z,19.00
2022-08-30T19:26:48.701Z,18.88
2022-08-30T19:29:16.388Z,18.80
2022-08-30T19:31:43.999Z,18.67
2022-08-30T19:34:11.933Z,18.63
2022-08-30T19:36:39.493Z,18.57
2022-08-30T19:39:07.914Z,18.60
2022-08-30T19:41:36.922Z,18.60
2022-08-30T19:44:05.510Z,18.53
2022-08-30T19:46:32.836Z,18.46
2022-08-30T19:49:03.872Z,18.42
2022-08-30T19:51:31.499Z,18.41
2022-08-30T19:54:01.475Z,18.35
2022-08-30T19:57:21.351Z,18.28
2022-08-30T19:59:23.193Z,18.27
2022-08-30T20:01:51.309Z,18.27
2022-08-30T20:04:19.735Z,18.29
2022-08-30T20:06:48.639Z,18.33
2022-08-30T20:09:17.329Z,18.33
2022-08-30T20:11:45.804Z,18.34
2022-08-30T20:14:18.100Z,18.33
2022-08-30T20:16:47.491Z,18.17
2022-08-30T20:19:17.081Z,18.05
2022-08-30T20:21:46.362Z,17.98
2022-08-30T20:24:14.510Z,17.92
2022-08-30T20:24:25.100Z,21.85
2022-08-30T20:26:41.988Z,17.92
2022-08-30T20:29:09.399Z,17.95
2022-08-30T20:31:36.915Z,17.99
2022-08-30T20:34:04.514Z,18.01
2022-08-30T20:36:33.674Z,17.91
2022-08-30T20:39:02.108Z,17.82
2022-08-30T20:41:31.205Z,17.79
2022-08-30T20:43:58.448Z,17.71
2022-08-30T20:46:27.029Z,17.70
2022-08-30T20:48:56.852Z,17.72
2022-08-30T20:51:24.243Z,17.75
2022-08-30T20:53:51.804Z,17.61
2022-08-30T20:56:21.616Z,17.58
2022-08-30T20:58:50.178Z,17.64
2022-08-30T21:01:18.472Z,17.60
2022-08-30T21:03:47.621Z,17.59
2022-08-30T21:06:16.557Z,17.48
2022-08-30T21:08:43.960Z,17.36
2022-08-30T21:11:11.496Z,17.28
2022-08-30T21:13:39.947Z,17.25
2022-08-30T21:16:07.714Z,17.25
2022-08-30T21:18:36.555Z,17.15
2022-08-30T21:21:12.469Z,17.10
2022-08-30T21:23:39.957Z,17.13
2022-08-30T21:26:07.849Z,17.11
2022-08-30T21:28:35.599Z,17.09
2022-08-30T21:31:07.818Z,17.12
2022-08-30T21:33:35.616Z,17.04
2022-08-30T21:36:21.744Z,17.01
2022-08-30T21:38:48.878Z,17.00
2022-08-30T21:41:16.136Z,17.02
2022-08-30T21:43:43.447Z,16.94
2022-08-30T21:46:11.495Z,16.90
2022-08-30T21:48:38.822Z,16.91
2022-08-30T21:51:07.240Z,16.86
2022-08-30T21:53:34.563Z,16.87
2022-08-30T21:56:13.119Z,16.85
2022-08-30T21:58:42.688Z,16.88
2022-08-30T22:01:15.785Z,16.93
2022-08-30T22:03:43.866Z,16.92
2022-08-30T22:06:12.471Z,16.84
2022-08-30T22:08:42.087Z,16.71
2022-08-30T22:11:11.537Z,16.67
2022-08-30T22:13:42.691Z,16.67
2022-08-30T22:16:12.189Z,16.67
2022-08-30T22:18:40.767Z,16.66
2022-08-30T22:21:08.740Z,16.68
2022-08-30T22:23:38.148Z,16.67
2022-08-30T22:26:08.126Z,16.61
2022-08-30T22:28:36.329Z,16.58
2022-08-30T22:31:08.367Z,16.48
2022-08-30T22:33:36.557Z,16.46
2022-08-30T22:36:16.726Z,16.48
2022-08-30T22:38:44.216Z,16.46
2022-08-30T22:41:14.303Z,16.45
2022-08-30T22:43:41.804Z,16.40
2022-08-30T22:46:09.216Z,16.35
2022-08-30T22:48:38.057Z,16.25
2022-08-30T22:51:05.526Z,16.27
2022-08-30T22:53:33.100Z,16.19
2022-08-30T22:56:01.256Z,16.12
2022-08-30T22:58:29.963Z,16.13
2022-08-30T23:00:57.172Z,16.15
2022-08-30T23:03:27.883Z,16.18
2022-08-30T23:05:55.030Z,16.15
2022-08-30T23:08:22.762Z,16.05
2022-08-30T23:10:49.949Z,15.95
2022-08-30T23:13:17.238Z,16.01
2022-08-30T23:15:44.570Z,15.94
2022-08-30T23:18:11.729Z,15.97
2022-08-30T23:20:38.916Z,16.00
2022-08-30T23:23:06.016Z,16.02
2022-08-30T23:25:52.943Z,15.99
2022-08-30T23:28:39.744Z,15.91
2022-08-30T23:31:34.115Z,15.85
2022-08-30T23:34:20.665Z,15.76
2022-08-30T23:37:06.504Z,15.69
2022-08-30T23:39:52.411Z,15.65
2022-08-30T23:42:38.152Z,15.64
2022-08-30T23:45:24.064Z,15.64
2022-08-30T23:48:09.788Z,15.61
2022-08-30T23:50:55.634Z,15.64
2022-08-30T23:53:43.883Z,15.57
2022-08-30T23:56:31.558Z,15.53
2022-08-30T23:59:17.640Z,15.57
